Time;durP1;ratioP1;P1;durP2;ratioP2;P2;SDS_P1;SDS_P2;PMS_P1;PMS_P2;Temp;Humidity;BMP_temperature;BMP_pressure;BME280_temperature;BME280_humidity;BME280_pressure;Samples;Min_cycle;Max_cycle;Signal;HPM_P1;HPM_P2
2022/10/13 00:00:41;;;;;;;37.87;15.43;;;;;;;6.72;100.00;100936.81;4956841;28;20237;-64
2022/10/13 00:03:07;;;;;;;40.33;15.60;;;;;;;6.70;100.00;100935.25;4958525;28;20244;-65
2022/10/13 00:05:34;;;;;;;38.13;14.80;;;;;;;6.68;100.00;100931.84;4957382;28;20235;-64
2022/10/13 00:08:00;;;;;;;29.13;13.90;;;;;;;6.66;100.00;100937.22;4953609;28;20605;-65
2022/10/13 00:10:27;;;;;;;44.03;15.17;;;;;;;6.58;100.00;100931.66;4956177;28;20228;-64
2022/10/13 00:12:53;;;;;;;32.73;14.70;;;;;;;6.57;100.00;100931.75;4952321;28;20260;-65
2022/10/13 00:15:20;;;;;;;31.33;13.43;;;;;;;6.49;100.00;100929.66;4955749;28;20229;-65
2022/10/13 00:17:47;;;;;;;33.33;14.20;;;;;;;6.43;100.00;100924.78;4956615;28;20683;-64
2022/10/13 00:20:13;;;;;;;31.50;13.67;;;;;;;6.42;100.00;100931.03;4957115;28;20228;-66
2022/10/13 00:22:40;;;;;;;36.80;13.97;;;;;;;6.38;100.00;100921.59;4956359;28;20224;-64
2022/10/13 00:25:06;;;;;;;39.60;14.40;;;;;;;6.41;100.00;100924.88;4958382;28;20228;-64
2022/10/13 00:27:33;;;;;;;42.70;16.73;;;;;;;6.55;100.00;100919.50;4954251;28;20233;-65
2022/10/13 00:29:59;;;;;;;37.57;16.53;;;;;;;6.43;100.00;100914.19;4958576;28;20244;-64
2022/10/13 00:32:26;;;;;;;35.37;14.70;;;;;;;6.38;100.00;100918.97;4959178;28;21042;-64
2022/10/13 00:34:52;;;;;;;36.37;14.43;;;;;;;6.32;100.00;100922.84;4957792;28;20247;-64
2022/10/13 00:37:19;;;;;;;41.97;15.47;;;;;;;6.35;100.00;100917.38;4951938;28;20232;-66
2022/10/13 00:39:46;;;;;;;35.23;14.70;;;;;;;6.30;100.00;100914.22;4636096;28;20601;-67
2022/10/13 00:42:12;;;;;;;39.03;15.00;;;;;;;6.24;100.00;100909.34;4266915;28;20391;-64
2022/10/13 00:44:59;;;;;;;35.47;15.90;;;;;;;6.17;100.00;100914.19;4210531;28;20335;-65
2022/10/13 00:47:27;;;;;;;40.93;15.33;;;;;;;6.13;100.00;100912.69;4221050;28;20452;-69
2022/10/13 00:49:54;;;;;;;36.27;15.23;;;;;;;6.12;100.00;100911.88;4221741;28;22109;-64
2022/10/13 00:52:22;;;;;;;33.90;14.80;;;;;;;6.07;100.00;100907.84;4213417;28;20239;-66
2022/10/13 00:54:49;;;;;;;33.37;14.40;;;;;;;6.03;100.00;100906.38;4211360;28;20250;-66
2022/10/13 00:57:17;;;;;;;36.93;15.73;;;;;;;5.99;100.00;100904.88;4185799;28;25668;-67
2022/10/13 00:59:43;;;;;;;35.57;14.93;;;;;;;5.96;100.00;100903.28;4206148;28;20309;-64
2022/10/13 01:02:10;;;;;;;35.47;14.77;;;;;;;5.92;100.00;100897.34;4206033;28;20667;-65
2022/10/13 01:04:39;;;;;;;33.43;15.00;;;;;;;5.87;100.00;100896.78;4211298;28;20415;-63
2022/10/13 01:07:05;;;;;;;32.20;14.60;;;;;;;5.86;100.00;100902.19;4209433;28;22871;-65
2022/10/13 01:09:36;;;;;;;38.70;15.60;;;;;;;5.80;100.00;100892.88;4211976;28;20272;-63
2022/10/13 01:12:24;;;;;;;44.27;16.60;;;;;;;5.82;100.00;100893.63;4203199;28;20632;-67
2022/10/13 01:15:01;;;;;;;33.97;14.43;;;;;;;5.79;100.00;100888.56;4221057;28;21177;-65
2022/10/13 01:17:47;;;;;;;37.00;14.57;;;;;;;5.75;100.00;100896.78;4200670;28;20669;-68
2022/10/13 01:20:31;;;;;;;36.37;15.47;;;;;;;5.74;100.00;100889.81;4208940;28;20244;-64
2022/10/13 01:23:51;;;;;;;32.23;15.57;;;;;;;5.73;100.00;100891.59;4195520;28;22527;-66
2022/10/13 01:26:40;;;;;;;34.27;15.70;;;;;;;5.69;100.00;100890.97;4201116;28;21706;-64
2022/10/13 01:29:40;;;;;;;36.57;14.77;;;;;;;5.72;100.00;100893.38;4204081;28;20605;-65
2022/10/13 01:32:12;;;;;;;40.17;15.43;;;;;;;5.75;100.00;100896.78;4225429;28;20238;-65
2022/10/13 01:34:46;;;;;;;36.07;15.07;;;;;;;5.71;100.00;100888.19;4206968;28;21621;-64
2022/10/13 01:37:21;;;;;;;37.63;14.83;;;;;;;5.66;100.00;100885.88;4216776;28;20236;-65
2022/10/13 01:40:13;;;;;;;32.97;14.97;;;;;;;5.60;100.00;100888.94;4217135;28;20239;-66
2022/10/13 01:42:48;;;;;;;38.83;15.93;;;;;;;5.58;100.00;100890.81;4229456;28;20239;-64
2022/10/13 01:45:18;;;;;;;34.40;14.90;;;;;;;5.56;100.00;100889.25;4219095;28;20258;-63
2022/10/13 01:47:45;;;;;;;30.40;15.40;;;;;;;5.53;100.00;100889.44;4242346;28;20307;-65
2022/10/13 01:50:13;;;;;;;42.27;15.40;;;;;;;5.47;100.00;100883.59;4219690;28;21757;-64
2022/10/13 01:52:41;;;;;;;30.27;14.83;;;;;;;5.43;100.00;100878.63;4209882;28;20258;-64
2022/10/13 01:55:10;;;;;;;32.63;15.47;;;;;;;5.40;100.00;100877.03;4191977;28;20401;-64
2022/10/13 01:57:43;;;;;;;29.67;14.27;;;;;;;5.41;100.00;100878.75;4218353;28;20239;-65
2022/10/13 02:00:18;;;;;;;35.57;15.33;;;;;;;5.48;100.00;100877.41;4200896;28;20410;-64
2022/10/13 02:03:19;;;;;;;45.10;16.37;;;;;;;5.46;100.00;100879.28;4205783;28;20286;-63
2022/10/13 02:05:52;;;;;;;43.27;17.20;;;;;;;5.43;100.00;100871.59;4186927;28;22033;-64
2022/10/13 02:08:51;;;;;;;41.90;17.10;;;;;;;5.40;100.00;100874.41;4189768;28;20379;-65
2022/10/13 02:11:31;;;;;;;35.53;16.47;;;;;;;5.39;100.00;100870.09;4202612;28;20333;-65
2022/10/13 02:14:28;;;;;;;37.43;16.83;;;;;;;5.46;100.00;100866.09;4209296;28;20307;-66
2022/10/13 02:17:09;;;;;;;45.37;17.57;;;;;;;5.45;100.00;100869.66;4196729;28;21164;-64
2022/10/13 02:19:37;;;;;;;42.47;16.50;;;;;;;5.48;100.00;100858.91;4213953;28;20242;-65
2022/10/13 02:22:05;;;;;;;42.87;17.40;;;;;;;5.54;100.00;100856.81;4200948;28;20235;-65
2022/10/13 02:24:31;;;;;;;32.20;16.07;;;;;;;5.52;100.00;100858.72;4203814;28;20232;-64
2022/10/13 02:26:58;;;;;;;34.93;16.53;;;;;;;5.50;100.00;100857.03;4201283;28;20360;-65
2022/10/13 02:29:24;;;;;;;34.90;15.93;;;;;;;5.50;100.00;100856.16;4205754;28;20241;-65
2022/10/13 02:31:53;;;;;;;41.53;16.87;;;;;;;5.47;100.00;100851.94;4206617;28;21273;-67
2022/10/13 02:34:20;;;;;;;42.47;17.10;;;;;;;5.54;100.00;100852.38;4216768;28;26282;-64
2022/10/13 02:36:46;;;;;;;37.17;17.40;;;;;;;5.57;100.00;100860.13;4207832;28;20260;-64
2022/10/13 02:39:13;;;;;;;36.87;16.83;;;;;;;5.54;100.00;100856.81;4208502;28;20300;-65
2022/10/13 02:41:39;;;;;;;37.20;16.67;;;;;;;5.54;100.00;100854.19;4214271;28;20235;-63
2022/10/13 02:44:06;;;;;;;31.13;16.00;;;;;;;5.53;100.00;100853.34;4204495;28;21183;-64
2022/10/13 02:46:33;;;;;;;30.17;15.47;;;;;;;5.53;100.00;100855.97;4209372;28;20810;-65
2022/10/13 02:48:59;;;;;;;32.57;15.90;;;;;;;5.55;100.00;100858.50;4204850;28;20354;-65
2022/10/13 02:51:26;;;;;;;42.10;17.07;;;;;;;5.57;100.00;100859.25;4218284;28;21788;-65
2022/10/13 02:53:52;;;;;;;34.17;16.27;;;;;;;5.49;100.00;100852.69;4212579;28;22695;-65
2022/10/13 02:56:19;;;;;;;31.23;15.93;;;;;;;5.45;100.00;100852.97;4216577;28;20254;-67
2022/10/13 02:58:45;;;;;;;34.00;16.63;;;;;;;5.40;100.00;100858.56;4211283;28;21476;-65
2022/10/13 03:01:13;;;;;;;48.50;19.93;;;;;;;5.37;100.00;100858.78;4214100;28;20277;-67
2022/10/13 03:03:40;;;;;;;40.00;16.57;;;;;;;5.40;100.00;100857.72;4214775;28;20254;-66
2022/10/13 03:06:07;;;;;;;40.10;16.53;;;;;;;5.35;100.00;100851.91;4205668;28;22160;-66
2022/10/13 03:08:34;;;;;;;36.93;16.87;;;;;;;5.35;100.00;100855.38;4214193;28;20239;-64
2022/10/13 03:11:00;;;;;;;35.87;16.70;;;;;;;5.34;100.00;100855.47;4217286;28;21096;-64
2022/10/13 03:13:27;;;;;;;34.53;16.90;;;;;;;5.33;100.00;100849.38;4207465;28;20832;-66
2022/10/13 03:15:53;;;;;;;32.27;15.07;;;;;;;5.32;100.00;100846.84;4207832;28;20674;-65
2022/10/13 03:18:20;;;;;;;42.43;16.70;;;;;;;5.30;100.00;100849.56;4215078;28;20351;-64
2022/10/13 03:21:01;;;;;;;41.40;16.10;;;;;;;5.25;100.00;100841.97;4201151;28;20634;-65
2022/10/13 03:23:27;;;;;;;45.00;17.47;;;;;;;5.22;100.00;100846.56;4210797;28;21395;-65
2022/10/13 03:25:54;;;;;;;40.60;17.03;;;;;;;5.18;100.00;100838.03;4210776;28;20232;-65
2022/10/13 03:28:21;;;;;;;40.40;17.03;;;;;;;5.15;100.00;100834.75;4192249;28;20247;-64
2022/10/13 03:30:48;;;;;;;40.33;17.20;;;;;;;5.09;100.00;100836.00;4211016;28;21558;-67
2022/10/13 03:33:14;;;;;;;41.63;18.90;;;;;;;5.11;100.00;100833.28;4210329;28;20426;-65
2022/10/13 03:35:41;;;;;;;44.30;17.80;;;;;;;5.14;100.00;100831.25;4208910;28;20633;-64
2022/10/13 03:38:07;;;;;;;44.13;17.63;;;;;;;5.13;100.00;100832.22;4208307;28;20242;-63
2022/10/13 03:40:35;;;;;;;45.80;18.23;;;;;;;5.16;100.00;100831.16;4211017;28;20300;-65
2022/10/13 03:43:01;;;;;;;41.43;18.07;;;;;;;5.08;100.00;100835.16;4214071;28;21716;-64
2022/10/13 03:45:30;;;;;;;42.43;19.00;;;;;;;5.11;100.00;100835.91;4201442;28;20234;-65
2022/10/13 03:47:57;;;;;;;37.30;16.67;;;;;;;5.11;100.00;100833.28;4212084;28;20346;-65
2022/10/13 03:50:24;;;;;;;43.77;18.60;;;;;;;5.05;100.00;100824.78;4210454;28;21073;-65
2022/10/13 03:52:50;;;;;;;44.00;18.00;;;;;;;5.14;100.00;100835.69;4197193;28;20450;-64
2022/10/13 03:55:17;;;;;;;44.87;19.50;;;;;;;5.17;100.00;100832.84;4217668;28;21183;-65
2022/10/13 03:57:43;;;;;;;51.17;18.50;;;;;;;5.19;100.00;100836.25;4208689;28;20231;-65
2022/10/13 04:00:10;;;;;;;48.73;18.00;;;;;;;5.20;100.00;100838.78;4206359;28;20239;-64
2022/10/13 04:02:37;;;;;;;34.57;17.20;;;;;;;5.21;100.00;100842.25;4201346;28;20647;-64
2022/10/13 04:05:04;;;;;;;35.33;16.90;;;;;;;5.18;100.00;100842.47;4212301;28;20315;-64
2022/10/13 04:07:31;;;;;;;40.83;17.97;;;;;;;5.20;100.00;100848.50;4210726;28;20306;-64
2022/10/13 04:09:57;;;;;;;45.67;18.33;;;;;;;5.22;100.00;100842.16;4204736;28;21140;-65
2022/10/13 04:12:23;;;;;;;43.33;17.50;;;;;;;5.20;100.00;100837.94;4208645;28;23719;-64
2022/10/13 04:14:51;;;;;;;37.13;16.70;;;;;;;5.19;100.00;100836.25;4208185;28;20244;-65
2022/10/13 04:17:17;;;;;;;42.00;18.67;;;;;;;5.08;100.00;100835.16;4207197;28;20300;-64
2022/10/13 04:19:44;;;;;;;37.23;17.93;;;;;;;5.10;100.00;100842.13;4207316;28;20416;-65
2022/10/13 04:22:10;;;;;;;41.70;18.23;;;;;;;5.04;100.00;100838.09;4212263;28;20240;-64
2022/10/13 04:24:37;;;;;;;42.90;19.57;;;;;;;5.09;100.00;100841.28;4235986;28;20247;-65
2022/10/13 04:27:03;;;;;;;46.63;18.63;;;;;;;5.05;100.00;100835.34;4206209;28;21458;-66
2022/10/13 04:29:30;;;;;;;47.83;19.40;;;;;;;5.07;100.00;100849.28;4204837;28;20242;-65
2022/10/13 04:32:00;;;;;;;47.63;19.00;;;;;;;5.07;100.00;100843.16;4213377;28;20244;-65
2022/10/13 04:34:26;;;;;;;42.17;18.57;;;;;;;5.07;100.00;100843.16;4209027;28;20302;-65
2022/10/13 04:36:53;;;;;;;81.43;35.13;;;;;;;5.08;100.00;100845.72;4206389;28;20323;-65
2022/10/13 04:39:19;;;;;;;58.53;25.13;;;;;;;5.12;100.00;100845.50;4217921;28;20806;-66
2022/10/13 04:41:46;;;;;;;50.67;19.67;;;;;;;5.08;100.00;100850.16;4206033;28;21883;-64
2022/10/13 04:44:12;;;;;;;42.93;18.47;;;;;;;5.09;100.00;100846.53;4203390;28;20241;-64
2022/10/13 04:46:39;;;;;;;36.23;18.57;;;;;;;5.12;100.00;100845.50;4224492;28;20240;-64
2022/10/13 04:49:05;;;;;;;47.03;19.97;;;;;;;5.13;100.00;100847.19;4209291;28;21384;-64
2022/10/13 04:51:32;;;;;;;42.90;17.67;;;;;;;5.13;100.00;100847.19;4205749;28;20314;-65
2022/10/13 04:54:04;;;;;;;45.67;18.53;;;;;;;5.08;100.00;100853.63;4207118;28;20308;-66
2022/10/13 04:56:31;;;;;;;42.70;18.90;;;;;;;5.08;100.00;100850.97;4209130;28;20235;-64
2022/10/13 04:58:58;;;;;;;45.73;18.43;;;;;;;5.12;100.00;100845.50;4197850;28;20258;-64
2022/10/13 05:01:25;;;;;;;45.67;20.03;;;;;;;5.10;100.00;100845.59;4216949;28;21125;-71
2022/10/13 05:03:53;;;;;;;45.83;17.80;;;;;;;5.09;100.00;100851.81;4228314;28;20236;-69
2022/10/13 05:06:25;;;;;;;42.23;19.43;;;;;;;5.10;100.00;100855.28;4242032;28;21173;-66
2022/10/13 05:08:52;;;;;;;50.37;21.90;;;;;;;5.10;100.00;100848.22;4235465;28;21065;-66
2022/10/13 05:11:19;;;;;;;46.40;21.23;;;;;;;5.11;100.00;100843.81;4231299;28;20224;-68
2022/10/13 05:13:47;;;;;;;50.23;23.60;;;;;;;5.11;100.00;100847.28;4242237;28;21756;-66
2022/10/13 05:16:15;;;;;;;50.53;23.37;;;;;;;5.19;100.00;100849.44;4220518;28;20231;-65
2022/10/13 05:18:42;;;;;;;56.57;27.97;;;;;;;5.18;100.00;100847.75;4241989;28;20239;-65
2022/10/13 05:21:11;;;;;;;56.33;27.00;;;;;;;5.25;100.00;100847.25;4243995;28;21596;-67
2022/10/13 05:23:39;;;;;;;54.07;26.63;;;;;;;5.24;100.00;100848.19;4228755;28;20228;-65
2022/10/13 05:26:10;;;;;;;57.37;25.90;;;;;;;5.34;100.00;100853.72;4225453;28;21867;-67
2022/10/13 05:28:37;;;;;;;59.47;26.13;;;;;;;5.38;100.00;100849.91;4214304;28;20266;-65
2022/10/13 05:31:10;;;;;;;53.40;24.73;;;;;;;5.41;100.00;100841.81;4201112;28;20926;-63
2022/10/13 05:33:37;;;;;;;55.83;23.40;;;;;;;5.40;100.00;100844.53;4235971;28;20615;-66
2022/10/13 05:36:10;;;;;;;50.37;22.40;;;;;;;5.44;100.00;100838.94;4222217;28;20371;-66
2022/10/13 05:38:37;;;;;;;46.03;20.63;;;;;;;5.54;100.00;100844.47;4225527;28;20231;-65
2022/10/13 05:41:12;;;;;;;45.03;20.17;;;;;;;5.60;100.00;100853.78;4196233;28;20524;-68
2022/10/13 05:43:39;;;;;;;46.23;20.27;;;;;;;5.58;100.00;100850.38;4214807;28;21019;-64
2022/10/13 05:46:06;;;;;;;45.97;19.43;;;;;;;5.65;100.00;100855.16;4199363;28;20240;-64
2022/10/13 05:48:34;;;;;;;45.63;20.03;;;;;;;5.70;100.00;100852.19;4219411;28;21499;-67
2022/10/13 05:51:03;;;;;;;48.33;19.67;;;;;;;5.80;100.00;100860.34;4204632;28;21677;-68
2022/10/13 05:53:33;;;;;;;55.37;21.60;;;;;;;5.86;100.00;100860.78;4217396;28;20244;-65
2022/10/13 05:56:05;;;;;;;43.03;18.40;;;;;;;5.94;100.00;100860.28;4217613;28;20235;-65
2022/10/13 05:58:37;;;;;;;53.00;21.00;;;;;;;5.99;100.00;100857.31;4190008;28;20287;-66
2022/10/13 06:01:09;;;;;;;47.23;19.37;;;;;;;6.11;100.00;100864.41;4201341;28;20227;-65
2022/10/13 06:03:37;;;;;;;38.37;17.70;;;;;;;6.22;100.00;100868.97;4197648;28;21676;-65
2022/10/13 06:06:03;;;;;;;43.70;18.37;;;;;;;6.26;100.00;100870.44;4222104;28;20258;-69
2022/10/13 06:08:30;;;;;;;44.97;16.90;;;;;;;6.33;100.00;100874.34;4234289;28;26184;-64
2022/10/13 06:10:57;;;;;;;43.57;18.07;;;;;;;6.41;100.00;100876.44;4223795;28;20417;-68
2022/10/13 06:13:23;;;;;;;44.37;17.70;;;;;;;6.48;100.00;100875.06;4214021;28;20232;-68
2022/10/13 06:15:50;;;;;;;45.80;16.87;;;;;;;6.57;100.00;100874.41;4207605;28;20232;-65
2022/10/13 06:18:17;;;;;;;39.43;16.53;;;;;;;6.67;100.00;100874.59;4217515;28;20236;-64
2022/10/13 06:20:43;;;;;;;47.60;14.97;;;;;;;6.74;100.00;100881.16;4202132;28;21217;-67
2022/10/13 06:23:10;;;;;;;47.47;17.17;;;;;;;6.91;100.00;100883.44;4210748;28;22051;-65
2022/10/13 06:25:37;;;;;;;38.87;14.43;;;;;;;6.95;100.00;100879.63;4200207;28;20256;-67
2022/10/13 06:28:03;;;;;;;48.37;15.80;;;;;;;7.13;99.78;100877.44;4195088;28;20300;-74
2022/10/13 06:30:30;;;;;;;33.33;13.43;;;;;;;7.35;97.36;100875.84;4208159;28;22753;-67
2022/10/13 06:32:57;;;;;;;40.33;13.17;;;;;;;7.51;95.60;100884.34;4214129;28;22921;-67
2022/10/13 06:35:24;;;;;;;42.90;14.87;;;;;;;7.51;95.24;100879.06;4231629;28;22503;-68
2022/10/13 06:37:52;;;;;;;41.07;13.83;;;;;;;7.56;95.93;100884.00;4220827;28;20737;-69
2022/10/13 06:40:18;;;;;;;37.63;13.77;;;;;;;7.61;95.01;100876.59;4297411;28;20240;-67
2022/10/13 06:42:48;;;;;;;31.00;13.53;;;;;;;7.71;95.06;100879.38;4255338;28;20234;-68
2022/10/13 06:45:16;;;;;;;37.37;13.20;;;;;;;7.78;94.22;100868.19;4243339;28;25312;-65
2022/10/13 06:47:42;;;;;;;39.03;14.60;;;;;;;7.80;93.78;100876.03;4238876;28;21175;-66
2022/10/13 06:50:09;;;;;;;54.90;23.20;;;;;;;7.95;92.86;100874.84;4297044;28;21790;-70
2022/10/13 06:52:36;;;;;;;39.33;14.30;;;;;;;8.02;90.78;100873.44;4215305;28;20976;-64
2022/10/13 06:55:04;;;;;;;31.10;12.93;;;;;;;8.10;90.02;100874.63;4209877;28;21764;-65
2022/10/13 06:57:31;;;;;;;32.43;12.67;;;;;;;8.24;88.65;100874.41;4196117;28;22215;-67
2022/10/13 06:59:58;;;;;;;36.90;12.83;;;;;;;8.35;87.32;100877.09;4207119;28;21290;-65
2022/10/13 07:02:24;;;;;;;30.87;12.20;;;;;;;8.46;86.50;100873.63;4240543;28;20267;-67
2022/10/13 07:04:51;;;;;;;35.90;11.77;;;;;;;8.63;85.07;100874.94;4216448;28;20236;-64
2022/10/13 07:07:18;;;;;;;28.60;11.47;;;;;;;8.71;84.37;100883.16;4204215;28;20243;-67
2022/10/13 07:09:44;;;;;;;26.90;11.63;;;;;;;8.80;84.45;100882.44;4193093;28;20317;-64
2022/10/13 07:12:12;;;;;;;29.07;10.10;;;;;;;8.92;83.47;100877.06;4239843;28;20258;-68
2022/10/13 07:14:39;;;;;;;29.77;10.60;;;;;;;8.97;82.97;100870.44;4256798;28;23243;-65
2022/10/13 07:17:09;;;;;;;37.57;11.47;;;;;;;9.04;82.66;100862.84;4271982;28;22607;-66
2022/10/13 07:19:36;;;;;;;32.50;10.00;;;;;;;9.21;81.74;100866.78;4246841;28;20232;-66
2022/10/13 07:22:02;;;;;;;31.87;10.77;;;;;;;9.26;81.65;100856.59;4298890;28;21589;-66
2022/10/13 07:24:29;;;;;;;29.57;10.50;;;;;;;9.38;81.72;100862.72;4317855;28;20225;-67
2022/10/13 07:26:58;;;;;;;31.27;10.17;;;;;;;9.80;80.63;100860.09;4369714;28;20227;-68
2022/10/13 07:29:35;;;;;;;31.97;9.80;;;;;;;10.77;75.81;100876.59;4424465;28;20413;-64
2022/10/13 07:32:02;;;;;;;29.83;9.00;;;;;;;12.92;69.07;100878.00;4287201;28;20387;-64
2022/10/13 07:34:28;;;;;;;22.33;9.90;;;;;;;17.04;50.57;100904.28;4280242;28;21208;-66
2022/10/13 07:36:55;;;;;;;28.10;9.17;;;;;;;19.91;40.38;100914.75;4294083;28;20847;-69
2022/10/13 07:39:22;;;;;;;33.97;9.90;;;;;;;22.12;33.84;100929.06;4249185;28;20383;-68
2022/10/13 07:41:49;;;;;;;24.83;11.03;;;;;;;24.36;29.88;100935.56;4281454;28;20309;-70
2022/10/13 07:44:17;;;;;;;37.10;14.33;;;;;;;26.56;25.16;100937.22;4273488;28;23082;-66
2022/10/13 07:46:49;;;;;;;30.03;14.13;;;;;;;27.67;23.39;100942.44;4357000;28;20309;-68
2022/10/13 07:49:19;;;;;;;22.43;8.93;;;;;;;27.85;22.42;100944.16;4401526;28;20300;-64
2022/10/13 07:51:49;;;;;;;22.30;8.83;;;;;;;28.08;21.89;100933.06;4402101;28;20237;-67
2022/10/13 07:54:17;;;;;;;26.77;9.23;;;;;;;28.61;21.25;100928.09;4410826;28;20261;-66
2022/10/13 07:56:55;;;;;;;30.73;9.53;;;;;;;29.69;20.37;100949.44;4386916;28;22347;-66
2022/10/13 07:59:25;;;;;;;26.90;9.83;;;;;;;31.16;18.46;100947.09;4426504;28;20943;-67
2022/10/13 08:01:52;;;;;;;27.90;10.00;;;;;;;29.03;20.57;100933.03;4348388;28;20695;-65
2022/10/13 08:04:19;;;;;;;22.08;9.85;;;;;;;29.84;19.30;100943.25;4379274;28;20969;-68
2022/10/13 08:06:48;;;;;;;32.50;12.27;;;;;;;28.85;20.06;100928.72;4360256;28;20228;-65
2022/10/13 08:09:15;;;;;;;29.57;10.83;;;;;;;28.60;20.82;100923.72;4359373;28;20257;-64
2022/10/13 08:11:42;;;;;;;24.50;9.50;;;;;;;29.12;19.87;100926.03;4334098;28;20243;-66
2022/10/13 08:14:10;;;;;;;24.87;8.87;;;;;;;28.06;20.81;100912.50;4330440;28;20527;-63
2022/10/13 08:16:38;;;;;;;20.48;8.95;;;;;;;26.92;22.13;100904.09;4255855;28;20260;-64
2022/10/13 08:19:05;;;;;;;25.27;9.07;;;;;;;27.28;21.56;100907.59;4252467;28;20233;-65
2022/10/13 08:21:32;;;;;;;22.40;9.20;;;;;;;26.73;22.41;100898.00;4214494;28;20236;-67
2022/10/13 08:24:21;;;;;;;20.53;9.00;;;;;;;27.05;21.05;100904.94;4257860;28;20877;-64
2022/10/13 08:26:51;;;;;;;28.33;9.43;;;;;;;26.95;21.55;100903.66;4322233;28;20621;-64
2022/10/13 08:29:19;;;;;;;22.37;8.87;;;;;;;26.97;21.66;100905.28;4417079;28;20645;-64
2022/10/13 08:31:50;;;;;;;24.03;8.93;;;;;;;27.98;20.34;100913.75;4387554;28;20243;-65
2022/10/13 08:34:17;;;;;;;22.10;9.17;;;;;;;27.73;20.40;100904.00;4404568;28;20553;-68
2022/10/13 08:36:46;;;;;;;19.77;7.43;;;;;;;27.04;21.07;100889.59;4414154;28;20323;-68
2022/10/13 08:39:13;;;;;;;20.33;8.23;;;;;;;27.83;20.45;100903.38;4400642;28;20228;-65
2022/10/13 08:41:45;;;;;;;16.50;7.70;;;;;;;27.75;20.09;100901.03;4307350;28;20274;-68
2022/10/13 08:44:11;;;;;;;27.40;8.50;;;;;;;26.51;22.21;100888.75;4290048;28;20318;-68
2022/10/13 08:47:25;;;;;;;23.13;8.47;;;;;;;25.32;23.19;100881.50;4278228;28;22196;-67
2022/10/13 08:49:55;;;;;;;25.03;8.00;;;;;;;22.45;27.35;100864.00;4344866;28;20232;-66
2022/10/13 08:52:28;;;;;;;22.03;7.63;;;;;;;19.19;32.42;100844.47;4262920;28;20246;-69
2022/10/13 08:54:56;;;;;;;26.03;7.80;;;;;;;17.80;35.66;100831.81;4328532;28;20236;-67
2022/10/13 08:57:22;;;;;;;21.33;7.43;;;;;;;17.11;37.80;100832.66;4278826;28;20683;-67
2022/10/13 08:59:51;;;;;;;21.70;7.77;;;;;;;16.94;38.51;100828.41;4259703;28;20240;-65
2022/10/13 09:02:25;;;;;;;22.17;7.43;;;;;;;16.91;38.67;100824.22;4241230;28;21519;-65
2022/10/13 09:04:52;;;;;;;18.50;7.83;;;;;;;16.96;39.01;100826.38;4306424;28;20310;-67
2022/10/13 09:07:23;;;;;;;21.53;7.90;;;;;;;16.75;39.74;100818.91;4272951;28;23066;-67
2022/10/13 09:09:51;;;;;;;18.67;6.97;;;;;;;16.78;39.89;100814.00;4280485;28;20236;-69
2022/10/13 09:12:22;;;;;;;19.20;7.50;;;;;;;16.95;39.26;100814.78;4277461;28;23275;-69
2022/10/13 09:15:10;;;;;;;22.33;7.77;;;;;;;16.64;39.55;100812.06;4248842;28;22237;-65
2022/10/13 09:17:39;;;;;;;19.03;7.10;;;;;;;16.44;40.23;100817.03;4308490;28;20248;-65
2022/10/13 09:20:21;;;;;;;15.53;6.43;;;;;;;16.33;39.83;100803.97;4280915;28;20228;-67
2022/10/13 09:23:00;;;;;;;25.33;6.60;;;;;;;16.31;40.01;100817.56;4237357;28;22607;-62
2022/10/13 09:25:26;;;;;;;19.03;5.80;;;;;;;16.30;40.10;100813.22;4236975;28;20296;-71
2022/10/13 09:27:56;;;;;;;20.20;6.87;;;;;;;16.29;40.63;100810.69;4276272;28;20244;-67
2022/10/13 09:30:24;;;;;;;18.73;6.73;;;;;;;15.82;42.05;100798.91;4254606;28;20242;-68
2022/10/13 09:33:05;;;;;;;17.30;6.60;;;;;;;15.57;42.94;100798.91;4236630;28;20418;-66
2022/10/13 09:35:33;;;;;;;18.17;6.93;;;;;;;15.81;42.60;100799.91;4234113;28;20232;-67
2022/10/13 09:38:04;;;;;;;20.33;6.03;;;;;;;15.99;41.82;100799.69;4230301;28;20335;-68
2022/10/13 09:40:31;;;;;;;17.47;6.60;;;;;;;15.55;43.56;100798.22;4244064;28;21815;-68
2022/10/13 09:43:00;;;;;;;14.57;5.97;;;;;;;15.30;42.63;100793.88;4211770;28;20240;-65
2022/10/13 09:45:29;;;;;;;18.57;5.97;;;;;;;15.13;42.88;100784.97;4220297;28;20561;-69
2022/10/13 09:48:03;;;;;;;20.50;6.80;;;;;;;15.13;44.26;100788.50;4237127;28;26008;-69
2022/10/13 09:50:34;;;;;;;20.13;7.40;;;;;;;14.96;45.60;100778.75;4197451;28;20235;-66
2022/10/13 09:53:24;;;;;;;20.27;7.00;;;;;;;15.02;45.16;100778.09;4217884;28;21936;-65
2022/10/13 09:56:28;;;;;;;21.50;6.67;;;;;;;14.92;44.75;100772.88;4224191;28;20337;-64
2022/10/13 09:59:09;;;;;;;19.43;6.80;;;;;;;14.99;44.89;100767.72;4255647;28;21572;-67
2022/10/13 10:01:45;;;;;;;18.87;5.87;;;;;;;14.94;45.22;100767.38;4369951;28;20299;-65
2022/10/13 10:04:16;;;;;;;14.00;5.70;;;;;;;14.89;44.49;100767.00;4263601;28;21812;-66
2022/10/13 10:06:45;;;;;;;19.90;6.40;;;;;;;14.87;44.74;100761.00;4258751;28;20800;-69
2022/10/13 10:09:36;;;;;;;19.47;5.07;;;;;;;14.63;44.92;100751.06;4261636;28;21302;-68
2022/10/13 10:12:03;;;;;;;11.73;4.70;;;;;;;14.49;45.95;100761.38;4266072;28;20592;-66
2022/10/13 10:14:35;;;;;;;15.30;5.23;;;;;;;14.71;45.09;100746.56;4235470;28;21279;-56
2022/10/13 10:17:40;;;;;;;14.17;4.73;;;;;;;14.64;45.61;100742.88;4292386;28;20248;-63
2022/10/13 10:20:25;;;;;;;17.67;4.80;;;;;;;14.63;45.54;100749.19;4305746;28;20377;-70
2022/10/13 10:23:00;;;;;;;15.10;4.77;;;;;;;14.62;45.25;100734.16;4262958;28;20311;-67
2022/10/13 10:25:51;;;;;;;17.30;6.03;;;;;;;14.63;45.33;100725.09;4282736;28;21745;-63
2022/10/13 10:28:26;;;;;;;11.93;3.90;;;;;;;14.61;44.06;100715.56;4276036;28;23675;-70
2022/10/13 10:31:01;;;;;;;17.20;4.27;;;;;;;14.64;45.05;100718.75;4241806;28;21523;-68
2022/10/13 10:33:55;;;;;;;14.10;4.23;;;;;;;14.70;43.92;100718.09;4259515;28;20231;-67
2022/10/13 10:36:27;;;;;;;9.17;3.47;;;;;;;14.76;45.88;100720.09;4209980;28;21852;-67
2022/10/13 10:39:02;;;;;;;19.93;4.30;;;;;;;14.67;42.88;100718.41;4237650;28;22136;-70
2022/10/13 10:41:44;;;;;;;14.07;3.63;;;;;;;14.63;43.80;100711.72;4236720;28;20523;-69
2022/10/13 10:44:21;;;;;;;10.53;3.57;;;;;;;14.59;42.99;100717.59;4200695;28;20404;-70
2022/10/13 10:46:48;;;;;;;13.13;3.50;;;;;;;14.60;43.44;100711.22;4211153;28;20250;-67
2022/10/13 10:49:25;;;;;;;15.10;3.40;;;;;;;14.49;43.00;100701.59;4237225;28;20244;-66
2022/10/13 10:51:52;;;;;;;9.63;3.00;;;;;;;14.51;43.41;100703.13;4283347;28;20358;-69
2022/10/13 10:54:19;;;;;;;13.20;3.20;;;;;;;14.51;42.83;100700.44;4219461;28;20229;-70
2022/10/13 10:56:59;;;;;;;11.03;2.87;;;;;;;14.61;42.92;100694.13;4260745;28;20610;-70
2022/10/13 10:59:44;;;;;;;9.20;2.93;;;;;;;14.66;42.74;100691.81;4225928;28;20277;-69
2022/10/13 11:02:34;;;;;;;11.13;2.90;;;;;;;14.36;42.55;100686.03;4260935;28;20233;-70
2022/10/13 11:05:00;;;;;;;8.80;2.90;;;;;;;14.38;42.86;100688.56;4241132;28;21700;-68
2022/10/13 11:07:32;;;;;;;7.53;2.27;;;;;;;14.30;42.67;100687.50;4236358;28;20228;-69
2022/10/13 11:09:58;;;;;;;11.07;2.43;;;;;;;14.19;43.01;100690.50;4219062;28;20228;-69
2022/10/13 11:12:43;;;;;;;7.90;2.37;;;;;;;14.39;42.19;100687.53;4243937;28;20247;-69
2022/10/13 11:15:12;;;;;;;8.67;2.57;;;;;;;14.26;42.40;100672.78;4210702;28;20235;-68
2022/10/13 11:17:40;;;;;;;8.83;2.43;;;;;;;14.10;42.97;100689.63;4235063;28;25474;-68
2022/10/13 11:20:21;;;;;;;7.43;2.23;;;;;;;14.06;43.29;100684.75;4207451;28;21804;-69
2022/10/13 11:22:56;;;;;;;13.30;3.17;;;;;;;14.06;43.99;100676.72;4205761;28;21796;-68
2022/10/13 11:25:41;;;;;;;12.53;3.50;;;;;;;14.12;43.62;100671.56;4225196;28;21200;-72
2022/10/13 11:28:20;;;;;;;12.77;3.00;;;;;;;14.21;43.59;100658.19;4291452;28;20254;-69